Time;durP1;ratioP1;P1;durP2;ratioP2;P2;SDS_P1;SDS_P2;PMS_P1;PMS_P2;Temp;Humidity;BMP_temperature;BMP_pressure;BME280_temperature;BME280_humidity;BME280_pressure;Samples;Min_cycle;Max_cycle;Signal;HPM_P1;HPM_P2
2021/12/15 00:01:42;;;;;;;6.18;4.30;;;17.90;69.10;;;;;;5073422;28;20435;-88
2021/12/15 00:04:08;;;;;;;7.60;4.43;;;17.90;69.10;;;;;;5073266;28;20092;-86
2021/12/15 00:06:34;;;;;;;6.43;4.82;;;17.90;69.20;;;;;;5072649;28;20040;-86
2021/12/15 00:09:04;;;;;;;5.30;3.90;;;17.90;69.20;;;;;;5072894;28;20104;-87
2021/12/15 00:11:35;;;;;;;7.00;4.60;;;17.80;69.20;;;;;;5073477;28;20033;-87
2021/12/15 00:14:03;;;;;;;8.15;4.75;;;17.80;69.20;;;;;;5093006;28;20016;-88
2021/12/15 00:16:29;;;;;;;5.85;4.35;;;17.80;69.20;;;;;;5092831;28;20077;-86
2021/12/15 00:18:55;;;;;;;6.65;4.45;;;17.80;70.10;;;;;;5092960;28;20095;-86
2021/12/15 00:21:20;;;;;;;6.97;4.18;;;17.80;69.30;;;;;;5092638;28;20032;-87
2021/12/15 00:23:48;;;;;;;5.63;4.10;;;17.80;69.30;;;;;;5092403;28;20098;-88
2021/12/15 00:26:14;;;;;;;4.78;3.95;;;17.80;69.30;;;;;;5090552;28;20043;-84
2021/12/15 00:28:42;;;;;;;5.80;4.47;;;17.70;69.30;;;;;;5092644;28;20024;-84
2021/12/15 00:31:08;;;;;;;5.63;3.83;;;17.70;69.30;;;;;;5087129;28;20052;-88
2021/12/15 00:33:36;;;;;;;6.65;4.63;;;17.70;69.40;;;;;;5065364;28;20372;-88
2021/12/15 00:36:03;;;;;;;6.65;4.45;;;17.70;69.40;;;;;;5091544;28;20034;-86
2021/12/15 00:38:29;;;;;;;5.93;4.47;;;17.70;69.40;;;;;;5082333;28;20109;-85
2021/12/15 00:40:55;;;;;;;5.78;4.10;;;17.60;69.40;;;;;;5082946;28;20082;-85
2021/12/15 00:43:21;;;;;;;5.80;4.35;;;17.60;69.40;;;;;;5058614;28;20476;-86
2021/12/15 00:45:48;;;;;;;5.20;3.92;;;17.60;69.40;;;;;;5074156;28;20029;-83
2021/12/15 00:48:14;;;;;;;5.82;4.07;;;17.60;69.50;;;;;;5080574;28;20028;-83
2021/12/15 00:50:40;;;;;;;6.53;4.90;;;17.60;69.50;;;;;;5092078;28;20430;-88
2021/12/15 00:53:07;;;;;;;6.38;4.45;;;17.60;69.50;;;;;;5090344;28;20027;-86
2021/12/15 00:55:35;;;;;;;7.25;4.43;;;17.60;69.60;;;;;;5083387;28;20028;-85
2021/12/15 00:58:02;;;;;;;5.47;4.57;;;17.50;69.50;;;;;;5072018;28;20020;-87
2021/12/15 01:00:47;;;;;;;7.38;4.45;;;17.50;69.60;;;;;;5082569;28;20119;-87
2021/12/15 01:03:14;;;;;;;6.63;4.47;;;17.50;69.60;;;;;;5053581;28;20107;-80
2021/12/15 01:05:45;;;;;;;5.50;4.25;;;17.50;69.60;;;;;;5071917;28;20027;-86
2021/12/15 01:08:16;;;;;;;6.05;4.57;;;17.50;69.70;;;;;;5054355;28;20483;-87
2021/12/15 01:11:01;;;;;;;6.80;4.68;;;17.50;69.70;;;;;;5080705;28;20040;-86
2021/12/15 01:21:43;;;;;;;5.95;4.25;;;17.40;69.70;;;;;;5088884;28;20046;-84
2021/12/15 01:24:10;;;;;;;5.68;4.32;;;17.40;69.80;;;;;;5092105;28;20020;-86
2021/12/15 01:26:36;;;;;;;5.95;4.97;;;17.40;69.80;;;;;;5090884;28;20035;-85
2021/12/15 01:29:02;;;;;;;6.45;4.90;;;17.40;69.90;;;;;;5091545;28;20391;-86
2021/12/15 01:31:28;;;;;;;6.65;4.65;;;17.40;69.90;;;;;;5069369;28;20468;-86
2021/12/15 01:33:54;;;;;;;6.38;4.20;;;17.30;69.80;;;;;;5091672;28;20031;-84
2021/12/15 01:36:19;;;;;;;6.05;4.43;;;17.30;69.80;;;;;;5091077;28;20392;-85
2021/12/15 01:38:46;;;;;;;8.23;4.88;;;17.30;69.90;;;;;;5091564;28;20066;-85
2021/12/15 01:41:20;;;;;;;7.13;4.85;;;17.30;69.90;;;;;;5073634;28;20020;-83
2021/12/15 01:46:55;;;;;;;6.18;4.25;;;17.30;69.90;;;;;;5077105;28;20393;-84
2021/12/15 01:49:29;;;;;;;5.70;4.75;;;17.30;69.90;;;;;;5070903;28;20078;-86
2021/12/15 01:51:57;;;;;;;5.63;4.47;;;17.30;69.90;;;;;;5071203;28;20036;-85
2021/12/15 01:54:24;;;;;;;6.25;4.32;;;17.30;69.90;;;;;;5070978;28;20107;-86
2021/12/15 01:56:50;;;;;;;5.88;4.68;;;17.30;69.90;;;;;;5072348;28;20063;-85
2021/12/15 01:59:20;;;;;;;5.65;4.50;;;17.30;70.10;;;;;;5089111;28;20036;-84
2021/12/15 02:01:46;;;;;;;6.43;5.00;;;17.30;70.10;;;;;;5077943;28;20392;-85
2021/12/15 02:04:12;;;;;;;7.10;5.03;;;17.20;70.20;;;;;;5071336;28;20025;-83
2021/12/15 02:06:42;;;;;;;6.35;4.78;;;17.20;70.10;;;;;;5053219;28;20021;-83
2021/12/15 02:09:09;;;;;;;6.20;4.75;;;17.20;70.10;;;;;;5071309;28;20021;-85
2021/12/15 02:11:35;;;;;;;6.25;5.07;;;17.20;70.20;;;;;;5070650;28;20047;-84
2021/12/15 02:14:01;;;;;;;7.00;4.75;;;17.20;70.20;;;;;;5052941;28;20028;-84
2021/12/15 02:16:27;;;;;;;6.78;4.72;;;17.30;70.20;;;;;;5080676;28;20032;-84
2021/12/15 02:18:52;;;;;;;7.45;4.47;;;17.30;70.30;;;;;;5089199;28;20066;-85
2021/12/15 02:21:25;;;;;;;7.93;5.97;;;17.20;70.20;;;;;;5082278;28;20100;-85
2021/12/15 02:23:55;;;;;;;8.13;5.57;;;17.20;70.20;;;;;;5071820;28;20492;-87
2021/12/15 02:26:36;;;;;;;6.97;4.72;;;17.20;70.20;;;;;;5070582;28;20025;-87
2021/12/15 02:29:05;;;;;;;6.80;4.85;;;17.20;70.20;;;;;;5070737;28;20092;-85
2021/12/15 02:37:15;;;;;;;6.72;5.18;;;17.20;70.30;;;;;;5080337;28;20077;-86
2021/12/15 02:39:43;;;;;;;6.43;4.70;;;17.20;70.30;;;;;;5090729;28;20027;-88
2021/12/15 02:42:08;;;;;;;5.57;4.05;;;17.20;70.30;;;;;;5057528;28;20028;-86
2021/12/15 02:44:34;;;;;;;7.57;5.50;;;17.20;70.30;;;;;;5052496;28;20148;-84
2021/12/15 02:47:00;;;;;;;6.03;5.00;;;17.20;70.30;;;;;;5072291;28;20430;-85
2021/12/15 02:49:28;;;;;;;6.78;4.97;;;17.20;70.30;;;;;;5085004;28;20032;-85
2021/12/15 02:51:58;;;;;;;7.95;5.20;;;17.20;70.30;;;;;;5078759;28;20489;-85
2021/12/15 02:54:26;;;;;;;7.03;5.32;;;17.30;70.40;;;;;;5073996;28;20017;-85
2021/12/15 02:56:53;;;;;;;6.30;5.03;;;17.30;70.40;;;;;;5075279;28;20037;-84
2021/12/15 02:59:23;;;;;;;6.03;4.65;;;17.20;70.30;;;;;;5088015;28;20427;-86
2021/12/15 03:07:14;;;;;;;7.90;5.07;;;17.20;70.30;;;;;;5094085;28;20032;-85
2021/12/15 03:15:29;;;;;;;6.90;5.30;;;17.20;70.40;;;;;;5032459;28;20039;-86
2021/12/15 03:17:58;;;;;;;5.13;4.07;;;17.20;70.40;;;;;;5073841;28;20028;-85
2021/12/15 03:20:31;;;;;;;6.97;4.40;;;17.20;70.40;;;;;;5090388;28;20402;-85
2021/12/15 03:22:57;;;;;;;6.95;4.78;;;17.20;70.40;;;;;;5093681;28;20020;-84
2021/12/15 03:25:25;;;;;;;7.63;4.85;;;17.20;70.40;;;;;;5093858;28;20028;-84
2021/12/15 03:36:14;;;;;;;7.00;4.85;;;17.30;70.50;;;;;;5093903;28;20155;-86
2021/12/15 03:38:42;;;;;;;6.03;5.07;;;17.20;70.40;;;;;;5094290;28;20051;-85
2021/12/15 03:41:10;;;;;;;5.38;4.28;;;17.30;70.50;;;;;;5093950;28;20016;-84
2021/12/15 03:43:37;;;;;;;6.43;4.70;;;17.30;70.50;;;;;;5093022;28;20028;-86
2021/12/15 03:46:13;;;;;;;7.05;4.82;;;17.20;70.40;;;;;;5091722;28;20035;-85
2021/12/15 03:48:42;;;;;;;6.28;4.80;;;17.20;70.30;;;;;;5093947;28;20027;-86
2021/12/15 03:51:09;;;;;;;6.75;4.90;;;17.20;70.50;;;;;;5093790;28;20154;-85
2021/12/15 03:53:34;;;;;;;6.00;4.93;;;17.20;71.10;;;;;;5075141;28;20020;-87
2021/12/15 03:56:02;;;;;;;6.53;4.65;;;17.20;70.40;;;;;;5082671;28;20111;-86
2021/12/15 03:58:28;;;;;;;5.40;4.25;;;17.30;70.50;;;;;;5084052;28;20164;-85
2021/12/15 04:00:58;;;;;;;6.93;4.45;;;17.30;70.50;;;;;;5081565;28;20389;-86
2021/12/15 04:03:45;;;;;;;5.80;4.07;;;17.30;70.50;;;;;;5072740;28;20028;-84
2021/12/15 04:06:16;;;;;;;5.03;4.18;;;17.30;70.50;;;;;;5055303;28;20052;-86
2021/12/15 04:08:42;;;;;;;6.90;4.65;;;17.30;70.50;;;;;;5059676;28;20059;-86
2021/12/15 04:11:12;;;;;;;6.05;4.32;;;17.30;70.50;;;;;;5082347;28;20035;-86
2021/12/15 04:13:38;;;;;;;6.28;4.57;;;17.30;71.20;;;;;;5081384;28;20036;-84
2021/12/15 04:16:07;;;;;;;5.10;4.00;;;17.30;70.50;;;;;;5078552;28;20036;-85
2021/12/15 04:18:36;;;;;;;4.85;4.35;;;17.30;70.50;;;;;;5072521;28;20082;-86
2021/12/15 04:21:03;;;;;;;5.85;4.07;;;17.30;70.50;;;;;;5085630;28;20030;-85
2021/12/15 04:23:30;;;;;;;6.93;4.43;;;17.30;70.50;;;;;;5092685;28;20081;-86
2021/12/15 04:25:58;;;;;;;6.65;4.28;;;17.30;70.50;;;;;;5092293;28;20046;-86
2021/12/15 04:28:33;;;;;;;4.72;3.50;;;17.30;70.50;;;;;;5086455;28;20431;-85
2021/12/15 04:31:02;;;;;;;5.80;4.32;;;17.30;70.50;;;;;;5080785;28;20071;-86
2021/12/15 04:33:41;;;;;;;6.28;4.05;;;17.30;70.50;;;;;;5092399;28;20028;-86
2021/12/15 04:36:09;;;;;;;6.28;4.32;;;17.30;71.20;;;;;;5090755;28;20032;-85
2021/12/15 04:38:36;;;;;;;5.47;4.07;;;17.30;70.50;;;;;;5062636;28;20025;-86
2021/12/15 04:41:07;;;;;;;5.85;4.03;;;17.30;70.50;;;;;;5082267;28;20039;-86
2021/12/15 04:43:39;;;;;;;6.13;4.22;;;17.30;70.50;;;;;;5076582;28;20501;-86
2021/12/15 04:46:07;;;;;;;5.03;3.70;;;17.30;70.50;;;;;;5092017;28;20107;-86
2021/12/15 04:48:34;;;;;;;6.00;4.43;;;17.30;70.50;;;;;;5092030;28;20036;-86
2021/12/15 04:51:00;;;;;;;5.65;4.25;;;17.30;70.50;;;;;;5078934;28;20043;-88
2021/12/15 04:53:25;;;;;;;5.68;4.05;;;17.30;70.50;;;;;;5071976;28;20013;-87
2021/12/15 04:55:51;;;;;;;6.63;4.78;;;17.30;70.50;;;;;;5083816;28;20032;-88
2021/12/15 04:58:17;;;;;;;5.40;4.13;;;17.30;70.50;;;;;;5080188;28;20013;-91
2021/12/15 05:00:52;;;;;;;6.20;4.28;;;17.30;70.50;;;;;;5076169;28;20036;-81
2021/12/15 05:03:18;;;;;;;5.90;4.70;;;17.30;70.50;;;;;;5074521;28;20077;-87
2021/12/15 05:05:45;;;;;;;6.35;3.92;;;17.30;70.50;;;;;;5076587;28;20037;-88
2021/12/15 05:08:11;;;;;;;5.72;4.20;;;17.30;70.50;;;;;;5072762;28;20020;-92
2021/12/15 05:10:37;;;;;;;6.07;4.18;;;17.30;70.60;;;;;;5075999;28;20089;-90
2021/12/15 05:13:04;;;;;;;5.85;4.30;;;17.30;70.60;;;;;;5078868;28;20845;-90
2021/12/15 05:15:31;;;;;;;6.72;4.05;;;17.30;70.60;;;;;;5074784;28;20032;-90
2021/12/15 05:17:57;;;;;;;5.50;4.10;;;17.30;70.60;;;;;;5092055;28;20491;-92
2021/12/15 05:20:24;;;;;;;6.72;4.15;;;17.30;70.50;;;;;;5074242;28;20031;-91
2021/12/15 05:22:51;;;;;;;6.18;4.10;;;17.30;70.50;;;;;;5092201;28;20483;-89
2021/12/15 05:25:17;;;;;;;6.18;4.18;;;17.30;70.50;;;;;;5060179;28;20033;-88
2021/12/15 05:27:43;;;;;;;5.90;4.70;;;17.30;70.50;;;;;;5053763;28;20023;-80
2021/12/15 05:30:11;;;;;;;5.95;4.05;;;17.30;70.50;;;;;;5078821;28;20024;-89
2021/12/15 05:32:37;;;;;;;6.88;4.70;;;17.30;70.50;;;;;;5091203;28;20026;-89
2021/12/15 05:35:05;;;;;;;5.70;4.35;;;17.30;70.50;;;;;;5091892;28;20056;-88
2021/12/15 05:37:31;;;;;;;4.90;3.67;;;17.30;70.50;;;;;;5091958;28;20031;-90
2021/12/15 05:39:57;;;;;;;5.07;4.07;;;17.30;70.60;;;;;;5080534;28;20111;-84
2021/12/15 05:42:25;;;;;;;6.22;4.03;;;17.30;70.60;;;;;;5083757;28;20526;-86
2021/12/15 05:44:51;;;;;;;5.78;3.90;;;17.30;70.60;;;;;;5071366;28;20032;-85
2021/12/15 05:47:18;;;;;;;5.15;3.58;;;17.30;70.60;;;;;;5071093;28;20104;-88
2021/12/15 05:49:44;;;;;;;6.88;3.92;;;17.30;70.60;;;;;;5074669;28;20051;-89
2021/12/15 05:52:11;;;;;;;5.97;4.45;;;17.30;70.60;;;;;;5078300;28;20029;-84
2021/12/15 05:54:36;;;;;;;6.07;3.90;;;17.30;70.60;;;;;;5090969;28;20553;-87
2021/12/15 05:57:03;;;;;;;5.82;4.78;;;17.30;70.60;;;;;;5088521;28;20027;-86
2021/12/15 05:59:29;;;;;;;5.18;3.90;;;17.30;70.60;;;;;;5087708;28;20032;-83
2021/12/15 06:01:55;;;;;;;6.30;4.03;;;17.30;70.60;;;;;;5071287;28;20448;-87
2021/12/15 06:04:21;;;;;;;4.68;3.65;;;17.30;70.60;;;;;;5091026;28;20080;-85
2021/12/15 06:06:47;;;;;;;5.47;4.07;;;17.30;70.60;;;;;;5091337;28;20024;-87
2021/12/15 06:09:14;;;;;;;5.05;3.97;;;17.30;70.60;;;;;;5091146;28;20032;-80
2021/12/15 06:11:41;;;;;;;5.65;4.10;;;17.30;70.60;;;;;;5085024;28;20028;-85
2021/12/15 06:14:07;;;;;;;5.78;4.35;;;17.30;70.60;;;;;;5081490;28;20020;-86
2021/12/15 06:16:34;;;;;;;4.65;3.83;;;17.30;70.60;;;;;;5058011;28;20507;-87
2021/12/15 06:19:00;;;;;;;5.97;4.03;;;17.30;70.60;;;;;;5056777;28;20027;-89
2021/12/15 06:21:26;;;;;;;5.45;4.18;;;17.30;70.60;;;;;;5066306;28;20024;-90
2021/12/15 06:23:52;;;;;;;4.65;3.95;;;17.30;70.60;;;;;;5092432;28;20035;-89
2021/12/15 06:26:18;;;;;;;6.30;4.10;;;17.30;70.60;;;;;;5078686;28;20407;-88
2021/12/15 06:28:45;;;;;;;5.32;3.75;;;17.30;70.60;;;;;;5078361;28;20380;-88
2021/12/15 06:31:13;;;;;;;5.40;4.10;;;17.30;70.60;;;;;;5085021;28;20035;-83
2021/12/15 06:33:39;;;;;;;4.65;3.85;;;17.30;70.70;;;;;;5090632;28;20046;-86
2021/12/15 06:36:06;;;;;;;7.65;4.35;;;17.30;70.60;;;;;;5080822;28;20451;-84
2021/12/15 06:38:35;;;;;;;7.63;3.97;;;17.30;70.60;;;;;;5072685;28;20078;-83
2021/12/15 06:41:02;;;;;;;5.80;4.05;;;17.30;70.60;;;;;;5070373;28;20505;-82
2021/12/15 06:43:28;;;;;;;6.45;4.55;;;17.30;70.70;;;;;;5076681;28;20028;-83
2021/12/15 07:00:09;;;;;;;6.25;4.47;;;17.30;70.70;;;;;;4973532;28;20035;-89
2021/12/15 07:02:34;;;;;;;5.13;4.07;;;17.30;70.70;;;;;;4989945;28;20049;-93
2021/12/15 07:05:00;;;;;;;5.90;4.60;;;17.30;70.70;;;;;;5036959;28;20431;-91
2021/12/15 07:07:26;;;;;;;5.57;3.92;;;17.30;71.50;;;;;;5057067;28;20077;-93
2021/12/15 07:09:53;;;;;;;5.60;3.90;;;17.30;70.80;;;;;;5080865;28;20028;-93
2021/12/15 07:12:18;;;;;;;5.93;3.80;;;17.40;70.90;;;;;;5078642;28;20038;-93
2021/12/15 07:14:44;;;;;;;6.30;3.53;;;17.40;71.00;;;;;;5088726;28;20047;-93
2021/12/15 07:17:19;;;;;;;6.50;4.22;;;17.40;71.00;;;;;;5085731;28;20028;-91
2021/12/15 07:20:28;;;;;;;6.00;3.90;;;17.40;71.10;;;;;;5098109;28;20046;-93
2021/12/15 07:22:43;;;;;;;5.82;4.07;;;17.40;71.20;;;;;;5094661;28;20064;-86
2021/12/15 07:25:12;;;;;;;5.82;4.20;;;17.40;71.20;;;;;;5093594;28;20024;-83
2021/12/15 07:27:38;;;;;;;8.98;4.13;;;17.50;71.40;;;;;;5093874;28;20035;-83
2021/12/15 07:30:05;;;;;;;6.18;4.05;;;17.50;71.50;;;;;;5093797;28;20136;-83
2021/12/15 07:32:31;;;;;;;6.32;4.45;;;17.50;71.50;;;;;;5093356;28;20035;-87
2021/12/15 07:34:57;;;;;;;7.20;3.92;;;17.50;71.70;;;;;;5092702;28;20020;-79
2021/12/15 07:37:22;;;;;;;7.28;3.83;;;17.50;71.60;;;;;;5093236;28;20085;-82
2021/12/15 07:39:57;;;;;;;6.80;3.97;;;17.60;71.80;;;;;;5083358;28;20028;-82
2021/12/15 07:42:33;;;;;;;6.45;3.85;;;17.60;71.80;;;;;;5082312;28;20032;-91
2021/12/15 07:44:59;;;;;;;6.90;4.10;;;17.60;71.80;;;;;;5082968;28;20028;-86
2021/12/15 07:47:24;;;;;;;5.53;3.33;;;17.60;71.80;;;;;;5086887;28;20031;-81
2021/12/15 07:49:50;;;;;;;6.97;4.22;;;17.60;71.80;;;;;;5092734;28;20514;-79
2021/12/15 07:52:15;;;;;;;5.93;3.72;;;17.60;72.00;;;;;;5087587;28;20028;-90
2021/12/15 07:54:41;;;;;;;9.55;4.05;;;17.60;71.90;;;;;;5086204;28;20028;-85
2021/12/15 07:57:10;;;;;;;6.75;4.22;;;17.60;71.90;;;;;;5093466;28;20032;-90
2021/12/15 07:59:36;;;;;;;5.70;4.10;;;17.60;71.90;;;;;;5092503;28;20032;-90
2021/12/15 08:02:03;;;;;;;6.18;4.55;;;17.60;71.90;;;;;;5092890;28;20024;-89
2021/12/15 08:04:29;;;;;;;7.20;4.25;;;17.60;71.90;;;;;;5092827;28;20031;-89
2021/12/15 08:06:54;;;;;;;6.35;4.32;;;17.60;71.90;;;;;;5093082;28;20047;-89
2021/12/15 08:09:22;;;;;;;9.10;4.97;;;17.60;71.90;;;;;;5092891;28;20024;-90
2021/12/15 08:11:48;;;;;;;13.48;4.30;;;17.60;71.90;;;;;;5074480;28;20050;-89
2021/12/15 08:14:15;;;;;;;7.25;4.28;;;17.60;72.00;;;;;;5092509;28;20510;-88
2021/12/15 08:16:41;;;;;;;8.38;4.55;;;17.60;71.90;;;;;;5080950;28;20036;-91
2021/12/15 08:19:08;;;;;;;6.82;4.65;;;17.60;71.90;;;;;;5092268;28;20571;-90
2021/12/15 08:21:34;;;;;;;7.50;4.75;;;17.60;72.00;;;;;;5091999;28;20071;-94
2021/12/15 08:24:00;;;;;;;5.60;4.28;;;17.60;72.00;;;;;;5096425;28;20028;-88
2021/12/15 08:26:26;;;;;;;6.65;4.55;;;17.60;72.00;;;;;;5093407;28;20016;-88
2021/12/15 08:28:52;;;;;;;6.22;4.53;;;17.60;72.00;;;;;;5093535;28;20492;-86
2021/12/15 08:31:18;;;;;;;7.75;4.72;;;17.60;72.00;;;;;;5092747;28;20067;-89
2021/12/15 08:33:43;;;;;;;6.05;3.92;;;17.60;72.00;;;;;;5093872;28;20056;-89
2021/12/15 08:36:11;;;;;;;5.60;4.25;;;17.60;72.00;;;;;;5088561;28;20484;-90
2021/12/15 08:38:41;;;;;;;7.68;4.32;;;17.60;72.00;;;;;;5080063;28;20138;-86
2021/12/15 08:41:10;;;;;;;7.93;4.07;;;17.60;72.00;;;;;;5074193;28;20023;-92
2021/12/15 08:43:36;;;;;;;6.70;4.30;;;17.60;72.00;;;;;;5092842;28;20031;-90
2021/12/15 08:46:20;;;;;;;6.32;4.70;;;17.50;72.00;;;;;;5092423;28;20024;-89
2021/12/15 08:48:48;;;;;;;7.20;4.35;;;17.60;72.10;;;;;;5092813;28;20479;-88
2021/12/15 08:51:16;;;;;;;6.80;4.10;;;17.50;72.00;;;;;;5092607;28;20046;-87
2021/12/15 08:53:43;;;;;;;6.75;4.38;;;17.50;72.00;;;;;;5093002;28;20027;-89
2021/12/15 08:56:09;;;;;;;5.40;4.13;;;17.50;72.00;;;;;;5093092;28;20103;-92
2021/12/15 08:58:35;;;;;;;6.60;4.07;;;17.50;72.00;;;;;;5077472;28;20113;-92
2021/12/15 09:01:03;;;;;;;5.55;3.72;;;17.50;72.00;;;;;;5092269;28;20028;-92
2021/12/15 09:03:29;;;;;;;10.02;4.85;;;17.50;72.00;;;;;;5092492;28;20058;-90
2021/12/15 09:05:56;;;;;;;7.32;4.22;;;17.50;72.10;;;;;;5087820;28;20013;-91
2021/12/15 09:08:24;;;;;;;5.05;3.67;;;17.50;72.10;;;;;;5092679;28;20028;-92
2021/12/15 09:10:56;;;;;;;4.53;3.60;;;17.40;72.00;;;;;;5065718;28;20028;-88
2021/12/15 09:13:22;;;;;;;8.55;4.05;;;17.40;72.00;;;;;;5084840;28;20035;-90
2021/12/15 09:15:48;;;;;;;5.35;4.00;;;17.40;72.00;;;;;;5085379;28;20031;-92
2021/12/15 09:18:14;;;;;;;5.20;3.58;;;17.40;72.00;;;;;;5086200;28;20021;-91
2021/12/15 09:20:42;;;;;;;4.70;4.05;;;17.40;72.00;;;;;;5077212;28;20021;-89
2021/12/15 09:23:13;;;;;;;6.30;4.05;;;17.40;72.00;;;;;;5077046;28;20028;-94
2021/12/15 09:25:40;;;;;;;4.97;3.90;;;17.40;72.00;;;;;;5082030;28;20150;-89
2021/12/15 09:28:06;;;;;;;7.95;4.03;;;17.40;72.00;;;;;;5078380;28;20028;-94
2021/12/15 09:30:33;;;;;;;5.93;3.65;;;17.40;72.00;;;;;;5088239;28;20408;-91
2021/12/15 09:33:00;;;;;;;5.40;3.50;;;17.40;72.00;;;;;;5092273;28;20020;-90
2021/12/15 09:35:30;;;;;;;5.20;4.20;;;17.40;72.00;;;;;;5077751;28;20099;-90
2021/12/15 09:37:56;;;;;;;5.32;4.18;;;17.40;72.00;;;;;;5095305;28;20012;-88
2021/12/15 09:40:22;;;;;;;6.70;3.92;;;17.30;72.00;;;;;;5075804;28;20035;-92
2021/12/15 09:42:49;;;;;;;6.45;4.07;;;17.30;72.00;;;;;;5071982;28;20027;-93
2021/12/15 09:45:35;;;;;;;4.82;3.45;;;17.30;72.00;;;;;;5086397;28;20032;-93
2021/12/15 10:04:46;;;;;;;5.47;3.50;;;17.20;72.00;;;;;;5096662;28;20036;-91
2021/12/15 10:17:24;;;;;;;4.93;4.10;;;17.20;72.00;;;;;;5091867;28;20088;-91
2021/12/15 10:18:16;;;;;;;6.53;3.50;;;17.20;72.10;;;;;;5071781;28;20047;-91
2021/12/15 10:20:42;;;;;;;5.10;3.83;;;17.20;72.10;;;;;;5082394;28;20059;-93
2021/12/15 10:23:16;;;;;;;5.32;4.10;;;17.10;72.10;;;;;;5086700;28;20380;-92
2021/12/15 10:25:47;;;;;;;5.97;3.95;;;17.10;72.10;;;;;;5084282;28;20024;-93
2021/12/15 10:28:15;;;;;;;6.65;3.92;;;17.10;72.10;;;;;;5079982;28;20082;-93
2021/12/15 10:30:55;;;;;;;4.93;3.60;;;17.10;72.10;;;;;;5060889;28;20411;-86
2021/12/15 10:33:24;;;;;;;5.95;3.80;;;17.10;72.10;;;;;;5081827;28;20016;-89
2021/12/15 10:35:51;;;;;;;6.03;3.83;;;17.10;72.10;;;;;;5073023;28;20849;-94
2021/12/15 10:38:20;;;;;;;5.40;3.25;;;17.10;72.10;;;;;;5091607;28;20104;-86
2021/12/15 10:40:49;;;;;;;4.22;3.58;;;17.00;72.10;;;;;;5091504;28;20020;-93
2021/12/15 10:43:15;;;;;;;4.25;3.13;;;17.00;72.00;;;;;;5087161;28;20380;-89
2021/12/15 10:45:45;;;;;;;6.95;3.38;;;17.00;72.10;;;;;;5097094;28;20028;-90
2021/12/15 10:48:22;;;;;;;7.25;3.70;;;17.00;72.10;;;;;;5089136;28;20024;-93
2021/12/15 10:50:49;;;;;;;3.70;3.08;;;17.00;72.10;;;;;;5091451;28;20082;-89
2021/12/15 10:53:28;;;;;;;6.35;4.22;;;17.10;72.20;;;;;;5090971;28;20070;-91
2021/12/15 10:55:54;;;;;;;9.32;4.03;;;17.00;72.10;;;;;;5091573;28;20369;-93
2021/12/15 10:58:38;;;;;;;4.78;3.80;;;17.00;72.30;;;;;;5094714;28;20068;-90
2021/12/15 11:01:25;;;;;;;5.05;3.60;;;17.00;72.30;;;;;;5080099;28;20045;-94
2021/12/15 11:03:51;;;;;;;8.32;3.75;;;17.00;72.40;;;;;;5053607;28;20021;-90
2021/12/15 11:06:27;;;;;;;5.18;3.45;;;17.00;72.40;;;;;;5071556;28;20020;-93
2021/12/15 11:09:23;;;;;;;4.18;3.20;;;17.10;72.50;;;;;;5082666;28;20032;-89
2021/12/15 11:12:19;;;;;;;4.40;2.95;;;17.10;72.50;;;;;;5061260;28;20058;-92
2021/12/15 11:14:51;;;;;;;5.53;3.10;;;17.10;72.40;;;;;;5075238;28;20507;-87
2021/12/15 11:17:29;;;;;;;3.80;2.75;;;17.20;72.40;;;;;;5093127;28;20103;-88
2021/12/15 11:20:00;;;;;;;4.65;3.13;;;17.20;72.40;;;;;;5088357;28;20035;-93
2021/12/15 11:22:47;;;;;;;4.13;2.80;;;17.20;72.40;;;;;;5097630;28;20035;-78
2021/12/15 11:25:33;;;;;;;4.97;3.33;;;17.30;72.40;;;;;;5086417;28;20044;-79
2021/12/15 11:28:13;;;;;;;5.65;2.38;;;17.30;72.30;;;;;;5097881;28;20024;-92
2021/12/15 11:30:45;;;;;;;3.33;2.60;;;17.40;72.40;;;;;;5104645;28;20036;-88
2021/12/15 11:33:11;;;;;;;4.63;2.65;;;17.40;72.30;;;;;;5075495;28;20028;-94
2021/12/15 11:35:51;;;;;;;3.85;2.80;;;17.40;72.20;;;;;;5105376;28;20391;-90
2021/12/15 11:38:21;;;;;;;4.32;3.03;;;17.50;72.20;;;;;;5109672;28;20028;-87
2021/12/15 11:41:12;;;;;;;5.38;2.63;;;17.50;72.20;;;;;;5111454;28;20000;-94
2021/12/15 11:43:57;;;;;;;3.67;2.72;;;17.50;72.10;;;;;;5082991;28;20382;-92
2021/12/15 11:46:33;;;;;;;3.08;2.28;;;17.60;72.10;;;;;;5088271;28;20031;-90
2021/12/15 11:49:14;;;;;;;3.15;2.40;;;17.60;72.10;;;;;;5084367;28;20035;-82
2021/12/15 11:52:11;;;;;;;4.60;2.42;;;17.60;72.10;;;;;;5089056;28;20519;-83
2021/12/15 11:54:44;;;;;;;3.95;2.40;;;17.70;72.10;;;;;;5087013;28;20037;-83
2021/12/15 11:57:18;;;;;;;3.25;2.45;;;17.70;72.10;;;;;;5091292;28;20103;-90
2021/12/15 11:59:49;;;;;;;3.78;2.65;;;17.80;72.00;;;;;;5082337;28;20032;-88
2021/12/15 12:02:30;;;;;;;3.53;2.90;;;17.80;72.10;;;;;;5082859;28;20066;-83
2021/12/15 12:05:02;;;;;;;3.28;2.40;;;17.80;72.10;;;;;;5086679;28;20031;-85
2021/12/15 12:07:54;;;;;;;3.53;2.20;;;17.80;72.20;;;;;;5091268;28;20036;-79
2021/12/15 12:10:43;;;;;;;3.10;2.08;;;17.90;72.40;;;;;;5086054;28;20032;-78
2021/12/15 12:13:15;;;;;;;6.22;2.28;;;18.00;73.10;;;;;;5085165;28;20035;-78
2021/12/15 12:15:43;;;;;;;3.40;2.78;;;18.10;73.00;;;;;;5081791;28;20472;-91
2021/12/15 12:18:15;;;;;;;5.60;2.38;;;18.20;73.20;;;;;;5074102;28;20024;-90
2021/12/15 12:20:47;;;;;;;4.43;2.42;;;18.20;73.00;;;;;;5084985;28;20035;-92
2021/12/15 12:23:17;;;;;;;6.28;3.00;;;18.30;73.00;;;;;;5089417;28;20028;-81
2021/12/15 12:25:49;;;;;;;11.55;4.28;;;18.30;73.90;;;;;;5081139;28;20020;-87
2021/12/15 12:28:19;;;;;;;11.90;4.80;;;18.30;73.40;;;;;;5075590;28;20013;-91
2021/12/15 12:30:48;;;;;;;13.85;4.18;;;18.40;73.50;;;;;;5073523;28;20451;-87
2021/12/15 12:33:16;;;;;;;12.70;4.80;;;18.40;73.40;;;;;;5091753;28;20031;-91
2021/12/15 12:35:46;;;;;;;12.75;4.57;;;18.50;73.40;;;;;;5063062;28;20029;-90
2021/12/15 12:38:21;;;;;;;12.35;4.03;;;18.50;73.50;;;;;;5076673;28;20025;-91
2021/12/15 12:41:07;;;;;;;14.02;3.85;;;18.50;73.40;;;;;;5068191;28;20122;-89
2021/12/15 12:43:38;;;;;;;9.02;3.90;;;18.60;73.40;;;;;;5102343;28;20066;-91
2021/12/15 12:46:23;;;;;;;9.88;3.30;;;18.60;73.50;;;;;;5097115;28;20058;-89
2021/12/15 12:49:30;;;;;;;7.97;3.72;;;18.60;73.20;;;;;;5097779;28;20020;-93
2021/12/15 13:00:37;;;;;;;8.98;3.60;;;18.60;72.60;;;;;;5087127;28;20050;-96
2021/12/15 13:03:14;;;;;;;9.38;3.60;;;18.60;72.50;;;;;;5093544;28;20039;-89
2021/12/15 13:05:41;;;;;;;6.57;3.00;;;18.60;72.50;;;;;;5088669;28;20407;-89
2021/12/15 13:08:11;;;;;;;7.28;3.10;;;18.50;72.40;;;;;;5082747;28;20401;-90
2021/12/15 13:11:06;;;;;;;8.40;3.60;;;18.50;72.50;;;;;;5091985;28;20020;-89
2021/12/15 13:13:31;;;;;;;6.15;3.05;;;18.50;72.50;;;;;;5047518;28;20063;-79
2021/12/15 13:16:07;;;;;;;6.88;2.72;;;18.50;72.50;;;;;;5081264;28;20059;-84
2021/12/15 13:18:55;;;;;;;7.32;3.28;;;18.50;72.50;;;;;;5091297;28;20380;-83
2021/12/15 13:21:39;;;;;;;6.75;3.00;;;18.40;72.50;;;;;;5071618;28;20025;-92
2021/12/15 13:24:10;;;;;;;6.35;3.00;;;18.40;72.50;;;;;;5090607;28;20028;-91
2021/12/15 13:29:29;;;;;;;8.90;3.38;;;18.40;72.50;;;;;;5076488;28;20407;-88
2021/12/15 13:32:00;;;;;;;6.63;2.25;;;18.30;72.40;;;;;;5066779;28;20036;-89
2021/12/15 13:34:38;;;;;;;6.05;2.70;;;18.30;72.40;;;;;;5071985;28;20021;-86
2021/12/15 13:37:05;;;;;;;3.65;2.55;;;18.30;72.40;;;;;;5083710;28;20036;-85
2021/12/15 13:39:49;;;;;;;3.92;2.40;;;18.30;72.30;;;;;;5071855;28;20029;-76
2021/12/15 13:43:01;;;;;;;6.22;2.75;;;18.30;72.40;;;;;;5085145;28;20035;-77
2021/12/15 13:45:33;;;;;;;4.82;2.72;;;18.20;72.30;;;;;;5087067;28;20035;-87
2021/12/15 13:47:59;;;;;;;6.57;2.80;;;18.20;72.20;;;;;;5075693;28;20495;-85
2021/12/15 13:50:29;;;;;;;5.97;3.30;;;18.20;72.20;;;;;;5080858;28;20019;-88
2021/12/15 13:53:02;;;;;;;4.97;2.45;;;18.20;72.20;;;;;;5090235;28;20106;-83
2021/12/15 13:55:39;;;;;;;5.10;3.00;;;18.10;72.10;;;;;;5076336;28;20024;-86
2021/12/15 13:58:13;;;;;;;4.72;2.80;;;18.10;72.10;;;;;;5088396;28;20024;-88
2021/12/15 14:01:00;;;;;;;6.15;3.05;;;18.20;72.10;;;;;;5091579;28;20038;-87
2021/12/15 14:03:48;;;;;;;7.30;2.67;;;18.10;72.10;;;;;;5070810;28;20044;-88
2021/12/15 14:06:22;;;;;;;3.70;2.22;;;18.10;72.10;;;;;;5070988;28;20028;-83
2021/12/15 14:08:55;;;;;;;5.30;2.45;;;18.00;72.00;;;;;;5053084;28;20056;-88
2021/12/15 14:11:29;;;;;;;7.30;3.10;;;18.00;72.00;;;;;;5070767;28;20459;-85
2021/12/15 14:14:00;;;;;;;4.45;2.53;;;18.00;72.00;;;;;;5070969;28;20388;-85
2021/12/15 14:16:38;;;;;;;4.38;2.42;;;18.00;72.00;;;;;;5070886;28;20020;-85
2021/12/15 14:19:08;;;;;;;5.43;2.80;;;18.00;72.00;;;;;;5070992;28;20033;-85
2021/12/15 14:21:36;;;;;;;5.38;2.75;;;17.90;72.00;;;;;;5071000;28;20395;-88
2021/12/15 14:24:03;;;;;;;3.75;2.45;;;18.00;72.10;;;;;;5052959;28;20031;-83
2021/12/15 14:26:33;;;;;;;5.38;2.67;;;17.90;72.20;;;;;;5075149;28;20024;-82
2021/12/15 14:29:10;;;;;;;5.72;2.50;;;17.90;72.20;;;;;;5068623;28;20058;-82